sensor_id;sensor_type;location;lat;lon;timestamp;temperature;humidity
14798;DHT22;7490;63.708;20.368;2022-10-16T00:00:32;8.90;95.90
14798;DHT22;7490;63.708;20.368;2022-10-16T00:02:58;8.90;95.80
14798;DHT22;7490;63.708;20.368;2022-10-16T00:05:24;8.80;95.80
14798;DHT22;7490;63.708;20.368;2022-10-16T00:07:49;8.80;95.80
14798;DHT22;7490;63.708;20.368;2022-10-16T00:10:15;8.80;95.70
14798;DHT22;7490;63.708;20.368;2022-10-16T00:12:41;8.70;95.50
14798;DHT22;7490;63.708;20.368;2022-10-16T00:15:07;8.70;95.30
14798;DHT22;7490;63.708;20.368;2022-10-16T00:17:33;8.60;95.20
14798;DHT22;7490;63.708;20.368;2022-10-16T00:19:58;8.60;95.10
14798;DHT22;7490;63.708;20.368;2022-10-16T00:22:24;8.50;95.00
14798;DHT22;7490;63.708;20.368;2022-10-16T00:24:50;8.40;94.90
14798;DHT22;7490;63.708;20.368;2022-10-16T00:27:16;8.40;95.10
14798;DHT22;7490;63.708;20.368;2022-10-16T00:29:42;8.30;95.10
14798;DHT22;7490;63.708;20.368;2022-10-16T00:32:08;8.20;95.10
14798;DHT22;7490;63.708;20.368;2022-10-16T00:34:34;8.10;95.20
14798;DHT22;7490;63.708;20.368;2022-10-16T00:37:00;8.10;95.30
14798;DHT22;7490;63.708;20.368;2022-10-16T00:39:25;8.10;95.40
14798;DHT22;7490;63.708;20.368;2022-10-16T00:41:51;8.10;95.50
14798;DHT22;7490;63.708;20.368;2022-10-16T00:47:15;8.00;95.70
14798;DHT22;7490;63.708;20.368;2022-10-16T00:49:42;8.00;95.90
14798;DHT22;7490;63.708;20.368;2022-10-16T00:52:08;8.00;95.60
14798;DHT22;7490;63.708;20.368;2022-10-16T00:54:35;8.00;95.60
14798;DHT22;7490;63.708;20.368;2022-10-16T00:57:04;8.00;95.60
14798;DHT22;7490;63.708;20.368;2022-10-16T00:59:38;8.00;95.50
14798;DHT22;7490;63.708;20.368;2022-10-16T01:02:07;7.90;95.50
14798;DHT22;7490;63.708;20.368;2022-10-16T01:04:48;7.90;95.30
14798;DHT22;7490;63.708;20.368;2022-10-16T01:15:20;7.70;95.10
14798;DHT22;7490;63.708;20.368;2022-10-16T01:20:37;7.60;95.40
14798;DHT22;7490;63.708;20.368;2022-10-16T01:28:39;7.50;95.00
14798;DHT22;7490;63.708;20.368;2022-10-16T01:31:08;7.40;95.00
14798;DHT22;7490;63.708;20.368;2022-10-16T01:33:47;7.40;94.90
14798;DHT22;7490;63.708;20.368;2022-10-16T01:36:21;7.30;94.70
14798;DHT22;7490;63.708;20.368;2022-10-16T01:38:50;7.20;94.70
14798;DHT22;7490;63.708;20.368;2022-10-16T01:41:22;7.20;94.70
14798;DHT22;7490;63.708;20.368;2022-10-16T01:44:04;7.10;94.90
14798;DHT22;7490;63.708;20.368;2022-10-16T01:46:31;7.10;95.00
14798;DHT22;7490;63.708;20.368;2022-10-16T01:48:58;7.10;94.90
14798;DHT22;7490;63.708;20.368;2022-10-16T01:51:25;7.00;94.80
14798;DHT22;7490;63.708;20.368;2022-10-16T01:53:54;7.00;94.70
14798;DHT22;7490;63.708;20.368;2022-10-16T01:56:21;7.00;94.80
14798;DHT22;7490;63.708;20.368;2022-10-16T01:58:55;6.90;94.90
14798;DHT22;7490;63.708;20.368;2022-10-16T02:01:24;6.90;94.70
14798;DHT22;7490;63.708;20.368;2022-10-16T02:03:54;6.80;94.80
14798;DHT22;7490;63.708;20.368;2022-10-16T02:06:21;6.80;94.80
14798;DHT22;7490;63.708;20.368;2022-10-16T02:08:48;6.80;94.80
14798;DHT22;7490;63.708;20.368;2022-10-16T02:11:14;6.80;94.80
14798;DHT22;7490;63.708;20.368;2022-10-16T02:13:50;6.70;94.70
14798;DHT22;7490;63.708;20.368;2022-10-16T02:16:16;6.70;95.20
14798;DHT22;7490;63.708;20.368;2022-10-16T02:18:43;6.70;94.70
14798;DHT22;7490;63.708;20.368;2022-10-16T02:21:26;6.60;94.70
14798;DHT22;7490;63.708;20.368;2022-10-16T02:24:00;6.60;94.60
14798;DHT22;7490;63.708;20.368;2022-10-16T02:29:04;6.50;94.50
14798;DHT22;7490;63.708;20.368;2022-10-16T02:31:35;6.50;94.60
14798;DHT22;7490;63.708;20.368;2022-10-16T02:34:04;6.40;94.70
14798;DHT22;7490;63.708;20.368;2022-10-16T02:36:32;6.40;94.70
14798;DHT22;7490;63.708;20.368;2022-10-16T02:39:00;6.40;94.70
14798;DHT22;7490;63.708;20.368;2022-10-16T02:41:27;6.30;94.80
14798;DHT22;7490;63.708;20.368;2022-10-16T02:43:53;6.30;94.80
14798;DHT22;7490;63.708;20.368;2022-10-16T02:46:20;6.30;94.80
14798;DHT22;7490;63.708;20.368;2022-10-16T02:48:46;6.30;94.70
14798;DHT22;7490;63.708;20.368;2022-10-16T02:51:12;6.30;94.80
14798;DHT22;7490;63.708;20.368;2022-10-16T02:53:38;6.30;94.90
14798;DHT22;7490;63.708;20.368;2022-10-16T02:56:04;6.30;95.20
14798;DHT22;7490;63.708;20.368;2022-10-16T02:58:29;6.20;95.20
14798;DHT22;7490;63.708;20.368;2022-10-16T03:00:55;6.20;95.20
14798;DHT22;7490;63.708;20.368;2022-10-16T03:03:21;6.20;95.40
14798;DHT22;7490;63.708;20.368;2022-10-16T03:05:47;6.20;95.60
14798;DHT22;7490;63.708;20.368;2022-10-16T03:08:13;6.30;95.70
14798;DHT22;7490;63.708;20.368;2022-10-16T03:10:38;6.20;95.70
14798;DHT22;7490;63.708;20.368;2022-10-16T03:13:04;6.30;95.80
14798;DHT22;7490;63.708;20.368;2022-10-16T03:15:30;6.30;95.80
14798;DHT22;7490;63.708;20.368;2022-10-16T03:17:59;6.30;95.90
14798;DHT22;7490;63.708;20.368;2022-10-16T03:20:26;6.30;95.80
14798;DHT22;7490;63.708;20.368;2022-10-16T03:22:52;6.30;95.70
14798;DHT22;7490;63.708;20.368;2022-10-16T03:25:17;6.30;95.90
14798;DHT22;7490;63.708;20.368;2022-10-16T03:27:43;6.30;96.10
14798;DHT22;7490;63.708;20.368;2022-10-16T03:30:09;6.40;96.20
14798;DHT22;7490;63.708;20.368;2022-10-16T03:32:35;6.40;96.20
14798;DHT22;7490;63.708;20.368;2022-10-16T03:35:00;6.50;96.20
14798;DHT22;7490;63.708;20.368;2022-10-16T03:37:26;6.60;96.20
14798;DHT22;7490;63.708;20.368;2022-10-16T03:39:52;6.60;96.30
14798;DHT22;7490;63.708;20.368;2022-10-16T03:42:18;6.70;96.50
14798;DHT22;7490;63.708;20.368;2022-10-16T03:44:44;6.80;96.60
14798;DHT22;7490;63.708;20.368;2022-10-16T03:47:09;6.80;96.60
14798;DHT22;7490;63.708;20.368;2022-10-16T03:49:35;6.90;96.70
14798;DHT22;7490;63.708;20.368;2022-10-16T03:52:01;7.00;96.70
14798;DHT22;7490;63.708;20.368;2022-10-16T03:54:26;7.10;96.80
14798;DHT22;7490;63.708;20.368;2022-10-16T03:56:52;7.10;96.70
14798;DHT22;7490;63.708;20.368;2022-10-16T03:59:17;7.20;96.70
14798;DHT22;7490;63.708;20.368;2022-10-16T04:01:43;7.30;96.70
14798;DHT22;7490;63.708;20.368;2022-10-16T04:04:09;7.40;96.80
14798;DHT22;7490;63.708;20.368;2022-10-16T04:06:35;7.40;96.70
14798;DHT22;7490;63.708;20.368;2022-10-16T04:09:00;7.50;96.80
14798;DHT22;7490;63.708;20.368;2022-10-16T04:11:26;7.50;96.80
14798;DHT22;7490;63.708;20.368;2022-10-16T04:13:51;7.60;96.70
14798;DHT22;7490;63.708;20.368;2022-10-16T04:16:17;7.60;96.70
14798;DHT22;7490;63.708;20.368;2022-10-16T04:18:43;7.60;96.90
14798;DHT22;7490;63.708;20.368;2022-10-16T04:21:08;7.70;96.90
14798;DHT22;7490;63.708;20.368;2022-10-16T04:23:34;7.70;97.00
14798;DHT22;7490;63.708;20.368;2022-10-16T04:26:00;7.70;97.00
14798;DHT22;7490;63.708;20.368;2022-10-16T04:28:26;7.80;97.00
14798;DHT22;7490;63.708;20.368;2022-10-16T04:30:52;7.80;97.10
14798;DHT22;7490;63.708;20.368;2022-10-16T04:33:18;7.90;97.20
14798;DHT22;7490;63.708;20.368;2022-10-16T04:35:43;7.90;97.10
14798;DHT22;7490;63.708;20.368;2022-10-16T04:38:09;8.00;97.10
14798;DHT22;7490;63.708;20.368;2022-10-16T04:40:35;8.00;97.10
14798;DHT22;7490;63.708;20.368;2022-10-16T04:43:04;8.10;97.20
14798;DHT22;7490;63.708;20.368;2022-10-16T04:45:30;8.10;97.10
14798;DHT22;7490;63.708;20.368;2022-10-16T04:47:59;8.10;97.00
14798;DHT22;7490;63.708;20.368;2022-10-16T04:50:25;8.10;96.90
14798;DHT22;7490;63.708;20.368;2022-10-16T04:52:51;8.10;96.80
14798;DHT22;7490;63.708;20.368;2022-10-16T04:55:17;8.10;96.80
14798;DHT22;7490;63.708;20.368;2022-10-16T04:57:42;8.10;96.90
14798;DHT22;7490;63.708;20.368;2022-10-16T05:00:08;8.10;96.90
14798;DHT22;7490;63.708;20.368;2022-10-16T05:02:34;8.10;96.90
14798;DHT22;7490;63.708;20.368;2022-10-16T05:05:00;8.10;96.90
14798;DHT22;7490;63.708;20.368;2022-10-16T05:07:26;8.10;96.80
14798;DHT22;7490;63.708;20.368;2022-10-16T05:09:51;8.20;96.90
14798;DHT22;7490;63.708;20.368;2022-10-16T05:12:17;8.20;96.80
14798;DHT22;7490;63.708;20.368;2022-10-16T05:14:43;8.20;96.70
14798;DHT22;7490;63.708;20.368;2022-10-16T05:17:08;8.20;96.60
14798;DHT22;7490;63.708;20.368;2022-10-16T05:19:34;8.20;96.70
14798;DHT22;7490;63.708;20.368;2022-10-16T05:22:00;8.30;96.90
14798;DHT22;7490;63.708;20.368;2022-10-16T05:24:26;8.30;96.90
14798;DHT22;7490;63.708;20.368;2022-10-16T05:26:52;8.40;96.90
14798;DHT22;7490;63.708;20.368;2022-10-16T05:29:18;8.40;96.80
14798;DHT22;7490;63.708;20.368;2022-10-16T05:31:43;8.40;96.70
14798;DHT22;7490;63.708;20.368;2022-10-16T05:34:09;8.50;96.90
14798;DHT22;7490;63.708;20.368;2022-10-16T05:36:35;8.50;96.90
14798;DHT22;7490;63.708;20.368;2022-10-16T05:39:01;8.50;97.00
14798;DHT22;7490;63.708;20.368;2022-10-16T05:41:27;8.60;97.00
14798;DHT22;7490;63.708;20.368;2022-10-16T05:43:53;8.60;96.90
14798;DHT22;7490;63.708;20.368;2022-10-16T05:46:19;8.70;96.90
14798;DHT22;7490;63.708;20.368;2022-10-16T05:48:45;8.70;96.90
14798;DHT22;7490;63.708;20.368;2022-10-16T05:51:12;8.70;96.80
14798;DHT22;7490;63.708;20.368;2022-10-16T05:53:39;8.70;96.80
14798;DHT22;7490;63.708;20.368;2022-10-16T05:56:06;8.70;96.70
14798;DHT22;7490;63.708;20.368;2022-10-16T05:58:35;8.70;96.70
14798;DHT22;7490;63.708;20.368;2022-10-16T06:01:04;8.70;96.80
14798;DHT22;7490;63.708;20.368;2022-10-16T06:03:30;8.70;96.80
14798;DHT22;7490;63.708;20.368;2022-10-16T06:05:56;8.70;96.90
14798;DHT22;7490;63.708;20.368;2022-10-16T06:08:22;8.70;96.90
14798;DHT22;7490;63.708;20.368;2022-10-16T06:10:49;8.80;96.80
14798;DHT22;7490;63.708;20.368;2022-10-16T06:13:25;8.80;96.80
14798;DHT22;7490;63.708;20.368;2022-10-16T06:15:50;8.80;96.80
14798;DHT22;7490;63.708;20.368;2022-10-16T06:18:16;8.80;96.90
14798;DHT22;7490;63.708;20.368;2022-10-16T06:20:42;8.80;96.90
14798;DHT22;7490;63.708;20.368;2022-10-16T06:23:07;8.80;97.00
14798;DHT22;7490;63.708;20.368;2022-10-16T06:25:33;8.80;97.00
14798;DHT22;7490;63.708;20.368;2022-10-16T06:27:59;8.90;97.10
14798;DHT22;7490;63.708;20.368;2022-10-16T06:30:25;8.90;97.20
14798;DHT22;7490;63.708;20.368;2022-10-16T06:32:51;8.90;97.20
14798;DHT22;7490;63.708;20.368;2022-10-16T06:35:16;9.00;97.20
14798;DHT22;7490;63.708;20.368;2022-10-16T06:37:42;9.10;97.30
14798;DHT22;7490;63.708;20.368;2022-10-16T06:40:25;9.10;97.30
14798;DHT22;7490;63.708;20.368;2022-10-16T06:42:54;9.10;97.40
14798;DHT22;7490;63.708;20.368;2022-10-16T06:45:20;9.10;97.40
14798;DHT22;7490;63.708;20.368;2022-10-16T06:47:46;9.20;97.50
14798;DHT22;7490;63.708;20.368;2022-10-16T06:50:11;9.20;97.50
14798;DHT22;7490;63.708;20.368;2022-10-16T06:52:37;9.20;97.60
14798;DHT22;7490;63.708;20.368;2022-10-16T06:55:03;9.30;97.70
14798;DHT22;7490;63.708;20.368;2022-10-16T06:57:29;9.40;97.70
14798;DHT22;7490;63.708;20.368;2022-10-16T06:59:54;9.50;97.70
14798;DHT22;7490;63.708;20.368;2022-10-16T07:02:20;9.50;97.70
14798;DHT22;7490;63.708;20.368;2022-10-16T07:04:45;9.50;97.70
14798;DHT22;7490;63.708;20.368;2022-10-16T07:07:11;9.60;97.60
14798;DHT22;7490;63.708;20.368;2022-10-16T07:09:37;9.70;97.60
14798;DHT22;7490;63.708;20.368;2022-10-16T07:12:03;9.70;97.60
14798;DHT22;7490;63.708;20.368;2022-10-16T07:14:45;9.80;97.60
14798;DHT22;7490;63.708;20.368;2022-10-16T07:17:17;9.90;97.70
14798;DHT22;7490;63.708;20.368;2022-10-16T07:19:44;9.90;97.60
14798;DHT22;7490;63.708;20.368;2022-10-16T07:22:10;10.00;97.60
14798;DHT22;7490;63.708;20.368;2022-10-16T07:24:35;10.10;97.60
14798;DHT22;7490;63.708;20.368;2022-10-16T07:27:22;10.10;97.60
14798;DHT22;7490;63.708;20.368;2022-10-16T07:30:17;10.20;97.60
14798;DHT22;7490;63.708;20.368;2022-10-16T07:32:50;10.30;97.60
14798;DHT22;7490;63.708;20.368;2022-10-16T07:35:16;10.30;97.60
14798;DHT22;7490;63.708;20.368;2022-10-16T07:37:45;10.40;97.70
14798;DHT22;7490;63.708;20.368;2022-10-16T07:40:11;10.40;97.80
14798;DHT22;7490;63.708;20.368;2022-10-16T07:42:36;10.50;97.90
14798;DHT22;7490;63.708;20.368;2022-10-16T07:45:02;10.50;97.90
14798;DHT22;7490;63.708;20.368;2022-10-16T07:47:28;10.50;97.80
14798;DHT22;7490;63.708;20.368;2022-10-16T07:49:54;10.50;97.90
14798;DHT22;7490;63.708;20.368;2022-10-16T07:52:19;10.60;98.00
14798;DHT22;7490;63.708;20.368;2022-10-16T07:54:45;10.60;98.00
14798;DHT22;7490;63.708;20.368;2022-10-16T07:57:10;10.60;98.10
14798;DHT22;7490;63.708;20.368;2022-10-16T07:59:36;10.70;98.10
14798;DHT22;7490;63.708;20.368;2022-10-16T08:02:02;10.80;98.10
14798;DHT22;7490;63.708;20.368;2022-10-16T08:04:27;10.80;98.00
14798;DHT22;7490;63.708;20.368;2022-10-16T08:06:53;10.90;98.00
14798;DHT22;7490;63.708;20.368;2022-10-16T08:09:20;10.90;98.00
14798;DHT22;7490;63.708;20.368;2022-10-16T08:11:45;10.90;97.80
14798;DHT22;7490;63.708;20.368;2022-10-16T08:14:11;10.90;97.90
14798;DHT22;7490;63.708;20.368;2022-10-16T08:16:36;10.90;97.50
14798;DHT22;7490;63.708;20.368;2022-10-16T08:19:02;10.80;97.50
14798;DHT22;7490;63.708;20.368;2022-10-16T08:21:28;10.80;97.80
14798;DHT22;7490;63.708;20.368;2022-10-16T08:23:54;10.80;97.50
14798;DHT22;7490;63.708;20.368;2022-10-16T08:26:20;10.80;97.50
14798;DHT22;7490;63.708;20.368;2022-10-16T08:28:49;10.80;97.50
14798;DHT22;7490;63.708;20.368;2022-10-16T08:31:16;10.70;97.50
14798;DHT22;7490;63.708;20.368;2022-10-16T08:33:43;10.80;97.60
14798;DHT22;7490;63.708;20.368;2022-10-16T08:36:10;10.80;97.70
14798;DHT22;7490;63.708;20.368;2022-10-16T08:38:37;10.80;97.80
14798;DHT22;7490;63.708;20.368;2022-10-16T08:49:19;10.90;97.90
14798;DHT22;7490;63.708;20.368;2022-10-16T08:51:45;10.90;98.10
14798;DHT22;7490;63.708;20.368;2022-10-16T08:56:46;10.90;98.50
14798;DHT22;7490;63.708;20.368;2022-10-16T08:59:14;10.90;98.70
14798;DHT22;7490;63.708;20.368;2022-10-16T09:01:44;11.00;99.10
14798;DHT22;7490;63.708;20.368;2022-10-16T09:18:27;12.20;99.90
14798;DHT22;7490;63.708;20.368;2022-10-16T09:21:13;12.50;99.90
14798;DHT22;7490;63.708;20.368;2022-10-16T09:23:40;12.80;99.90
14798;DHT22;7490;63.708;20.368;2022-10-16T09:26:11;13.30;99.90
14798;DHT22;7490;63.708;20.368;2022-10-16T09:28:37;14.30;99.90
14798;DHT22;7490;63.708;20.368;2022-10-16T09:31:03;16.00;99.90
14798;DHT22;7490;63.708;20.368;2022-10-16T09:33:36;16.60;98.50
14798;DHT22;7490;63.708;20.368;2022-10-16T09:36:05;16.60;97.60
14798;DHT22;7490;63.708;20.368;2022-10-16T09:38:35;16.30;97.60
14798;DHT22;7490;63.708;20.368;2022-10-16T09:41:10;15.90;97.90
14798;DHT22;7490;63.708;20.368;2022-10-16T09:43:42;15.60;98.00
14798;DHT22;7490;63.708;20.368;2022-10-16T09:49:19;15.00;98.70
14798;DHT22;7490;63.708;20.368;2022-10-16T09:51:45;14.90;99.10
14798;DHT22;7490;63.708;20.368;2022-10-16T09:54:17;14.70;99.20
14798;DHT22;7490;63.708;20.368;2022-10-16T09:56:43;14.70;99.40
14798;DHT22;7490;63.708;20.368;2022-10-16T09:59:15;14.60;99.40
14798;DHT22;7490;63.708;20.368;2022-10-16T10:01:48;14.50;99.40
14798;DHT22;7490;63.708;20.368;2022-10-16T10:04:15;14.40;99.40
14798;DHT22;7490;63.708;20.368;2022-10-16T10:09:32;14.30;99.50
14798;DHT22;7490;63.708;20.368;2022-10-16T10:12:03;14.30;99.60
14798;DHT22;7490;63.708;20.368;2022-10-16T10:14:38;14.30;99.60
14798;DHT22;7490;63.708;20.368;2022-10-16T10:31:06;14.10;99.60
14798;DHT22;7490;63.708;20.368;2022-10-16T10:39:04;13.80;99.70
14798;DHT22;7490;63.708;20.368;2022-10-16T10:55:52;14.90;97.20
14798;DHT22;7490;63.708;20.368;2022-10-16T11:08:41;14.10;98.30
14798;DHT22;7490;63.708;20.368;2022-10-16T11:11:16;14.00;98.30
14798;DHT22;7490;63.708;20.368;2022-10-16T11:13:52;13.90;98.30
14798;DHT22;7490;63.708;20.368;2022-10-16T11:16:43;13.90;98.60
14798;DHT22;7490;63.708;20.368;2022-10-16T11:19:28;13.80;98.30
14798;DHT22;7490;63.708;20.368;2022-10-16T11:27:17;13.60;98.10
14798;DHT22;7490;63.708;20.368;2022-10-16T11:29:59;13.50;98.20
14798;DHT22;7490;63.708;20.368;2022-10-16T11:32:34;13.50;98.40
14798;DHT22;7490;63.708;20.368;2022-10-16T11:35:10;13.50;98.60
14798;DHT22;7490;63.708;20.368;2022-10-16T11:37:42;13.50;98.60
14798;DHT22;7490;63.708;20.368;2022-10-16T11:40:31;13.50;98.60
14798;DHT22;7490;63.708;20.368;2022-10-16T11:45:43;13.50;98.30
14798;DHT22;7490;63.708;20.368;2022-10-16T11:50:45;13.30;98.50
14798;DHT22;7490;63.708;20.368;2022-10-16T12:07:47;13.80;99.50
14798;DHT22;7490;63.708;20.368;2022-10-16T12:10:33;13.90;99.20
14798;DHT22;7490;63.708;20.368;2022-10-16T12:13:03;13.90;98.60
14798;DHT22;7490;63.708;20.368;2022-10-16T12:15:32;13.80;98.70
14798;DHT22;7490;63.708;20.368;2022-10-16T12:17:58;13.80;98.70
14798;DHT22;7490;63.708;20.368;2022-10-16T12:20:32;13.80;98.80
14798;DHT22;7490;63.708;20.368;2022-10-16T12:23:02;13.80;98.80
14798;DHT22;7490;63.708;20.368;2022-10-16T12:25:34;13.70;98.70
14798;DHT22;7490;63.708;20.368;2022-10-16T12:28:27;13.70;98.70
14798;DHT22;7490;63.708;20.368;2022-10-16T12:31:04;13.70;98.60
14798;DHT22;7490;63.708;20.368;2022-10-16T12:33:35;13.60;98.50
14798;DHT22;7490;63.708;20.368;2022-10-16T12:36:04;13.60;98.60
14798;DHT22;7490;63.708;20.368;2022-10-16T12:38:44;13.60;98.60
14798;DHT22;7490;63.708;20.368;2022-10-16T12:41:10;13.50;98.70
14798;DHT22;7490;63.708;20.368;2022-10-16T12:43:39;13.50;98.60
14798;DHT22;7490;63.708;20.368;2022-10-16T12:48:34;13.40;98.70
14798;DHT22;7490;63.708;20.368;2022-10-16T12:51:23;13.40;98.80
14798;DHT22;7490;63.708;20.368;2022-10-16T12:54:04;13.40;98.90
14798;DHT22;7490;63.708;20.368;2022-10-16T12:59:21;13.40;98.90
14798;DHT22;7490;63.708;20.368;2022-10-16T13:04:42;13.30;98.90
14798;DHT22;7490;63.708;20.368;2022-10-16T13:10:55;13.30;99.10
14798;DHT22;7490;63.708;20.368;2022-10-16T13:27:05;13.40;99.30
14798;DHT22;7490;63.708;20.368;2022-10-16T13:29:33;13.30;99.30
14798;DHT22;7490;63.708;20.368;2022-10-16T13:32:01;13.30;99.40
14798;DHT22;7490;63.708;20.368;2022-10-16T13:34:27;13.40;99.50
14798;DHT22;7490;63.708;20.368;2022-10-16T13:36:54;13.40;99.40
14798;DHT22;7490;63.708;20.368;2022-10-16T13:39:29;13.40;99.20
14798;DHT22;7490;63.708;20.368;2022-10-16T13:42:06;13.30;99.20
14798;DHT22;7490;63.708;20.368;2022-10-16T13:44:39;13.30;99.30
14798;DHT22;7490;63.708;20.368;2022-10-16T13:47:10;13.30;99.40
14798;DHT22;7490;63.708;20.368;2022-10-16T13:49:40;13.30;99.40
14798;DHT22;7490;63.708;20.368;2022-10-16T13:52:05;13.30;99.20
14798;DHT22;7490;63.708;20.368;2022-10-16T13:54:31;13.30;99.10
14798;DHT22;7490;63.708;20.368;2022-10-16T13:57:18;13.30;99.20
14798;DHT22;7490;63.708;20.368;2022-10-16T14:00:37;13.20;99.10
14798;DHT22;7490;63.708;20.368;2022-10-16T14:11:20;13.20;99.10
14798;DHT22;7490;63.708;20.368;2022-10-16T14:13:47;13.10;99.10
14798;DHT22;7490;63.708;20.368;2022-10-16T14:16:27;13.10;99.10
14798;DHT22;7490;63.708;20.368;2022-10-16T14:19:02;13.00;99.10
14798;DHT22;7490;63.708;20.368;2022-10-16T14:21:30;13.00;99.10
14798;DHT22;7490;63.708;20.368;2022-10-16T14:23:57;13.00;99.00
14798;DHT22;7490;63.708;20.368;2022-10-16T14:26:26;12.90;99.00
14798;DHT22;7490;63.708;20.368;2022-10-16T14:29:12;12.80;99.00
14798;DHT22;7490;63.708;20.368;2022-10-16T14:31:38;12.80;99.20
14798;DHT22;7490;63.708;20.368;2022-10-16T14:34:38;12.80;99.20
14798;DHT22;7490;63.708;20.368;2022-10-16T14:37:50;12.80;99.30
14798;DHT22;7490;63.708;20.368;2022-10-16T14:41:04;12.90;99.30
14798;DHT22;7490;63.708;20.368;2022-10-16T14:44:19;12.90;99.20
14798;DHT22;7490;63.708;20.368;2022-10-16T14:47:37;12.90;99.20
14798;DHT22;7490;63.708;20.368;2022-10-16T14:50:57;12.80;99.00
14798;DHT22;7490;63.708;20.368;2022-10-16T14:54:16;12.80;99.00
14798;DHT22;7490;63.708;20.368;2022-10-16T14:57:39;12.40;99.00
14798;DHT22;7490;63.708;20.368;2022-10-16T15:00:55;12.70;99.30
14798;DHT22;7490;63.708;20.368;2022-10-16T15:04:12;12.70;99.30
14798;DHT22;7490;63.708;20.368;2022-10-16T15:07:25;12.70;99.10
14798;DHT22;7490;63.708;20.368;2022-10-16T15:10:27;12.60;99.00
14798;DHT22;7490;63.708;20.368;2022-10-16T15:20:26;12.40;98.00
14798;DHT22;7490;63.708;20.368;2022-10-16T15:23:30;12.30;97.90
14798;DHT22;7490;63.708;20.368;2022-10-16T15:26:19;12.00;97.70
14798;DHT22;7490;63.708;20.368;2022-10-16T15:29:06;11.90;97.50
14798;DHT22;7490;63.708;20.368;2022-10-16T15:31:53;11.50;97.10
14798;DHT22;7490;63.708;20.368;2022-10-16T15:34:58;11.70;97.00
14798;DHT22;7490;63.708;20.368;2022-10-16T15:37:48;11.10;96.70
14798;DHT22;7490;63.708;20.368;2022-10-16T15:40:38;11.50;97.30
14798;DHT22;7490;63.708;20.368;2022-10-16T15:43:30;11.40;97.10
14798;DHT22;7490;63.708;20.368;2022-10-16T15:46:19;11.30;97.00
14798;DHT22;7490;63.708;20.368;2022-10-16T15:49:18;11.20;97.10
14798;DHT22;7490;63.708;20.368;2022-10-16T15:52:09;11.10;97.60
14798;DHT22;7490;63.708;20.368;2022-10-16T15:55:08;11.10;97.90
14798;DHT22;7490;63.708;20.368;2022-10-16T15:57:57;11.10;98.10
14798;DHT22;7490;63.708;20.368;2022-10-16T16:00:45;11.10;98.00
14798;DHT22;7490;63.708;20.368;2022-10-16T16:03:45;11.10;97.70
14798;DHT22;7490;63.708;20.368;2022-10-16T16:06:36;11.20;97.60
14798;DHT22;7490;63.708;20.368;2022-10-16T16:09:26;11.00;97.90
14798;DHT22;7490;63.708;20.368;2022-10-16T16:12:15;11.00;97.90
14798;DHT22;7490;63.708;20.368;2022-10-16T16:15:10;11.00;97.80
14798;DHT22;7490;63.708;20.368;2022-10-16T16:17:58;11.00;97.70
14798;DHT22;7490;63.708;20.368;2022-10-16T16:20:52;11.00;97.60
14798;DHT22;7490;63.708;20.368;2022-10-16T16:23:37;10.90;97.60
14798;DHT22;7490;63.708;20.368;2022-10-16T16:26:28;10.90;97.60
14798;DHT22;7490;63.708;20.368;2022-10-16T16:29:15;10.90;97.60
14798;DHT22;7490;63.708;20.368;2022-10-16T16:31:59;10.90;97.70
14798;DHT22;7490;63.708;20.368;2022-10-16T16:34:42;10.90;97.70
14798;DHT22;7490;63.708;20.368;2022-10-16T16:37:20;11.20;97.80
14798;DHT22;7490;63.708;20.368;2022-10-16T16:39:46;11.00;97.70
14798;DHT22;7490;63.708;20.368;2022-10-16T16:42:12;11.00;97.60
14798;DHT22;7490;63.708;20.368;2022-10-16T16:44:38;11.00;97.60
14798;DHT22;7490;63.708;20.368;2022-10-16T16:47:05;10.90;97.60
14798;DHT22;7490;63.708;20.368;2022-10-16T16:49:31;11.00;97.60
14798;DHT22;7490;63.708;20.368;2022-10-16T16:51:57;11.00;97.60
14798;DHT22;7490;63.708;20.368;2022-10-16T16:54:22;10.90;97.50
14798;DHT22;7490;63.708;20.368;2022-10-16T16:56:48;11.00;97.40
14798;DHT22;7490;63.708;20.368;2022-10-16T16:59:16;10.80;97.30
14798;DHT22;7490;63.708;20.368;2022-10-16T17:01:43;11.00;97.40
14798;DHT22;7490;63.708;20.368;2022-10-16T17:04:09;11.00;97.30
14798;DHT22;7490;63.708;20.368;2022-10-16T17:06:36;11.00;97.30
14798;DHT22;7490;63.708;20.368;2022-10-16T17:09:03;11.00;97.20
14798;DHT22;7490;63.708;20.368;2022-10-16T17:11:30;11.00;97.20
14798;DHT22;7490;63.708;20.368;2022-10-16T17:13:57;11.00;97.20
14798;DHT22;7490;63.708;20.368;2022-10-16T17:16:43;10.90;97.10
14798;DHT22;7490;63.708;20.368;2022-10-16T17:19:34;10.90;97.00
14798;DHT22;7490;63.708;20.368;2022-10-16T17:22:31;10.90;97.00
14798;DHT22;7490;63.708;20.368;2022-10-16T17:25:07;10.90;97.00
14798;DHT22;7490;63.708;20.368;2022-10-16T17:27:33;10.90;97.00
14798;DHT22;7490;63.708;20.368;2022-10-16T17:30:00;10.80;96.90
14798;DHT22;7490;63.708;20.368;2022-10-16T17:32:26;10.80;96.90
14798;DHT22;7490;63.708;20.368;2022-10-16T17:34:52;10.80;96.90
14798;DHT22;7490;63.708;20.368;2022-10-16T17:37:17;10.80;96.90
14798;DHT22;7490;63.708;20.368;2022-10-16T17:39:43;10.80;96.80
14798;DHT22;7490;63.708;20.368;2022-10-16T17:42:09;10.80;96.70
14798;DHT22;7490;63.708;20.368;2022-10-16T17:44:34;10.80;97.00
14798;DHT22;7490;63.708;20.368;2022-10-16T17:47:00;10.80;96.60
14798;DHT22;7490;63.708;20.368;2022-10-16T17:49:43;10.70;96.60
14798;DHT22;7490;63.708;20.368;2022-10-16T17:52:52;10.70;96.50
14798;DHT22;7490;63.708;20.368;2022-10-16T17:56:05;10.70;96.50
14798;DHT22;7490;63.708;20.368;2022-10-16T17:59:14;10.70;96.50
14798;DHT22;7490;63.708;20.368;2022-10-16T18:02:22;10.70;96.50
14798;DHT22;7490;63.708;20.368;2022-10-16T18:05:37;10.70;96.30
14798;DHT22;7490;63.708;20.368;2022-10-16T18:08:48;10.70;96.40
14798;DHT22;7490;63.708;20.368;2022-10-16T18:12:02;10.60;96.30
14798;DHT22;7490;63.708;20.368;2022-10-16T18:15:12;10.60;96.30
14798;DHT22;7490;63.708;20.368;2022-10-16T18:36:40;10.20;95.10
14798;DHT22;7490;63.708;20.368;2022-10-16T18:39:08;10.00;94.80
14798;DHT22;7490;63.708;20.368;2022-10-16T18:41:36;9.80;94.80
14798;DHT22;7490;63.708;20.368;2022-10-16T18:44:03;9.60;94.80
14798;DHT22;7490;63.708;20.368;2022-10-16T18:46:29;9.60;94.80
14798;DHT22;7490;63.708;20.368;2022-10-16T18:49:16;9.40;94.70
14798;DHT22;7490;63.708;20.368;2022-10-16T18:52:23;9.30;94.60
14798;DHT22;7490;63.708;20.368;2022-10-16T18:55:30;9.20;94.60
14798;DHT22;7490;63.708;20.368;2022-10-16T18:58:32;9.00;94.30
14798;DHT22;7490;63.708;20.368;2022-10-16T19:01:36;8.90;94.40
14798;DHT22;7490;63.708;20.368;2022-10-16T19:04:38;8.80;94.30
14798;DHT22;7490;63.708;20.368;2022-10-16T19:07:36;8.90;94.30
14798;DHT22;7490;63.708;20.368;2022-10-16T19:10:41;8.60;94.30
14798;DHT22;7490;63.708;20.368;2022-10-16T19:13:54;8.50;94.40
14798;DHT22;7490;63.708;20.368;2022-10-16T19:17:00;8.40;94.50
14798;DHT22;7490;63.708;20.368;2022-10-16T19:19:59;8.30;94.50